Historique des mesures à Cassis (13260), France
Quotidien Résumé Janvier 13, 2017 Unités:  Métrique    US   Métrique/US
« Précédent (Jour)
Suivant (Jour) »
Quotidien Hebdomadaire Mensuel Annuel Période au choix
  Maximum: Minimum: Moyenne:
Température: TemperatureC °C 5.5 °C 8.8 °C
Point de rosée: DewpointC °C -4.4 °C 0.1 °C
Humidité: Humidity % 39 % 52 %
Vitesse du vent: 0 km/h 0 km/h 20.3 km/h
Rafales: 0 km/h - -
Vent:- - SSW
Pression: PressurehPa hPa 1004.3 hPa -
Précipitations: 0.0 mm    
Historical Graphs
 
 
Mesures pour : Janvier 13, 2017
Heure Temperature Point de rosée Pression Vent Vitesse du vent Rafales Humidité Pluie (par heure) Conditions
TemperatureC °C DewpointC °C PressurehPa hPa Calm     Humidity % HourlyPrecipMM mm SoftwareType W/m2
00:11 12.6 °C 8.4 °C 1008.0 hPa Calm     76 % 0.0 mm open2300-1.11 W/m2
01:10 12.9 °C 8.9 °C 1007.3 hPa West 6.4 km/h 6.4 km/h 77 % 0.0 mm open2300-1.11 W/m2
02:11 13.3 °C 9.5 °C 1006.7 hPa WNW 8 km/h 19.2 km/h 78 % 0.0 mm open2300-1.11 W/m2
03:10 12.7 °C 6.0 °C 1006.3 hPa NW 29.5 km/h 29.5 km/h 64 % 0.0 mm open2300-1.11 W/m2
04:11 11.9 °C 3.1 °C 1005.6 hPa NNW 7.6 km/h 26.7 km/h 55 % 0.0 mm open2300-1.11 W/m2
05:10 10.9 °C 1.9 °C 1004.3 hPa WNW 57.3 km/h 57.3 km/h 54 % 0.0 mm open2300-1.11 W/m2
06:11 10.2 °C 1.8 °C 1005.0 hPa NW 27.7 km/h 27.7 km/h 56 % 0.0 mm open2300-1.11 W/m2
07:10 9.6 °C 1.5 °C 1004.3 hPa WNW 23 km/h 24.8 km/h 57 % 0.0 mm open2300-1.11 W/m2
08:11 9.1 °C 0.7 °C 1005.0 hPa North 13.2 km/h 27.2 km/h 56 % 0.0 mm open2300-1.11 W/m2
09:10 8.2 °C -1.6 °C 1005.6 hPa NNW 23.8 km/h 45.4 km/h 50 % 0.0 mm open2300-1.11 W/m2
10:11 8.1 °C -0.7 °C 1007.0 hPa NNE 24.8 km/h 24.8 km/h 54 % 0.0 mm open2300-1.11 W/m2
11:10 8.3 °C -2.1 °C 1007.3 hPa NNE 2.9 km/h 27.2 km/h 48 % 0.0 mm open2300-1.11 W/m2
12:11 8.4 °C -4.2 °C 1006.7 hPa NW 7.6 km/h 40.7 km/h 41 % 0.0 mm open2300-1.11 W/m2
13:10 8.8 °C -4.4 °C 1007.3 hPa North 27.2 km/h 33.6 km/h 39 % 0.0 mm open2300-1.11 W/m2
14:11 9.4 °C -3.6 °C 1006.7 hPa Calm   46.8 km/h 40 % 0.0 mm open2300-1.11 W/m2
15:10 9.3 °C -3.6 °C 1006.7 hPa WNW 23.8 km/h 26.7 km/h 40 % 0.0 mm open2300-1.11 W/m2
16:11 9.4 °C -2.6 °C 1007.0 hPa North 45.9 km/h 45.9 km/h 43 % 0.0 mm open2300-1.11 W/m2
17:10 9.0 °C -2.4 °C 1007.0 hPa WNW 15.6 km/h 63.7 km/h 45 % 0.0 mm open2300-1.11 W/m2
18:11 7.9 °C -1.4 °C 1008.4 hPa NNE 20.9 km/h 25.4 km/h 52 % 0.0 mm open2300-1.11 W/m2
19:10 6.3 °C -1.4 °C 1009.4 hPa NNE 20.3 km/h 35.2 km/h 58 % 0.0 mm open2300-1.11 W/m2
20:11 5.6 °C -1.6 °C 1010.4 hPa NW 36 km/h 36 km/h 60 % 0.0 mm open2300-1.11 W/m2
21:10 5.5 °C -2.2 °C 1011.1 hPa North 9.3 km/h 13.2 km/h 58 % 0.0 mm open2300-1.11 W/m2
22:11 5.5 °C -3.4 °C 1011.7 hPa WNW 42.2 km/h 42.2 km/h 53 % 0.0 mm open2300-1.11 W/m2
23:10 5.9 °C -3.7 °C 1012.1 hPa NW 33.6 km/h 33.6 km/h 50 % 0.0 mm open2300-1.11 W/m2
Observations météo à CASSIS
WU-History script by Weather Underground - 1 mb